Time;durP1;ratioP1;P1;durP2;ratioP2;P2;SDS_P1;SDS_P2;PMS_P1;PMS_P2;Temp;Humidity;BMP_temperature;BMP_pressure;BME280_temperature;BME280_humidity;BME280_pressure;Samples;Min_cycle;Max_cycle;Signal;HPM_P1;HPM_P2
2022/03/01 03:43:53;;;;;;;12.48;8.20;;;12.40;50.80;;;;;;4790582;29;20050;-77
2022/03/01 03:46:39;;;;;;;12.20;8.15;;;12.30;50.90;;;;;;4760682;30;20072;-76
2022/03/01 04:06:06;;;;;;;;;;;;;;;;;;;;;
2022/03/01 04:56:14;;;;;;;;;;;;;;;;;;;;;
2022/03/01 05:05:52;;;;;;;15.63;8.52;;;12.00;51.30;;;;;;4696739;30;20108;-73
2022/03/01 05:08:32;;;;;;;10.52;8.75;;;12.00;52.00;;;;;;4694384;29;20069;-75
2022/03/01 05:11:07;;;;;;;12.90;9.82;;;12.10;52.20;;;;;;4793027;29;20062;-74
2022/03/01 05:13:39;;;;;;;12.45;9.65;;;12.20;51.40;;;;;;4811301;29;20042;-79
2022/03/01 05:16:05;;;;;;;16.55;8.88;;;12.20;50.80;;;;;;4874782;29;20096;-72
2022/03/01 05:18:30;;;;;;;13.20;9.63;;;12.30;51.00;;;;;;4866564;29;20085;-76
2022/03/01 05:20:59;;;;;;;14.93;9.45;;;12.30;51.40;;;;;;4860985;29;20467;-80
2022/03/01 05:23:27;;;;;;;12.90;9.13;;;12.20;56.70;;;;;;4862510;29;20399;-74
2022/03/01 05:25:54;;;;;;;12.13;8.23;;;12.30;56.80;;;;;;4860724;29;20053;-76
2022/03/01 05:28:19;;;;;;;10.60;7.50;;;12.40;57.10;;;;;;4877626;29;20045;-77
2022/03/01 05:30:45;;;;;;;10.32;7.25;;;12.50;58.60;;;;;;4864319;29;20041;-72
2022/03/01 05:33:11;;;;;;;15.25;6.97;;;12.70;58.10;;;;;;4862289;29;20401;-77
2022/03/01 05:35:38;;;;;;;8.07;6.57;;;12.90;59.10;;;;;;4862917;29;20061;-77
2022/03/01 05:38:09;;;;;;;9.48;6.38;;;13.10;59.30;;;;;;4847759;29;20052;-79
2022/03/01 05:40:36;;;;;;;9.82;6.95;;;13.20;59.80;;;;;;4847716;29;20046;-77
2022/03/01 05:43:02;;;;;;;11.32;6.78;;;13.40;58.40;;;;;;4863310;29;20041;-77
2022/03/01 05:45:28;;;;;;;6.75;5.30;;;13.50;59.60;;;;;;4862511;29;20133;-74
2022/03/01 05:47:54;;;;;;;9.90;6.15;;;13.60;58.50;;;;;;4863631;29;20037;-80
2022/03/01 05:50:21;;;;;;;13.23;7.75;;;13.80;58.50;;;;;;4847179;29;20045;-78
2022/03/01 05:52:50;;;;;;;9.82;6.38;;;13.20;53.50;;;;;;4847533;29;20050;-75
2022/03/01 05:55:16;;;;;;;14.10;5.93;;;13.30;59.20;;;;;;4863849;29;20128;-79
2022/03/01 05:57:42;;;;;;;10.20;5.82;;;13.50;60.50;;;;;;4846948;29;20144;-75
2022/03/01 06:00:12;;;;;;;8.20;5.60;;;13.70;61.30;;;;;;4861679;29;20086;-77
2022/03/01 06:02:38;;;;;;;10.77;6.60;;;13.80;61.30;;;;;;4862892;29;20161;-71
2022/03/01 06:05:04;;;;;;;9.18;5.63;;;14.00;60.80;;;;;;4861801;29;20048;-74
2022/03/01 06:07:30;;;;;;;14.70;6.28;;;14.10;62.50;;;;;;4861509;29;20136;-74
2022/03/01 06:09:56;;;;;;;12.20;7.60;;;14.10;62.80;;;;;;4862360;29;20128;-75
2022/03/01 06:12:22;;;;;;;12.25;6.18;;;14.20;64.00;;;;;;4862911;29;20061;-75
2022/03/01 06:14:47;;;;;;;9.07;6.57;;;14.30;64.20;;;;;;4863103;29;20083;-79
2022/03/01 06:17:14;;;;;;;17.98;7.20;;;14.40;63.20;;;;;;4862985;29;20109;-82
2022/03/01 06:19:40;;;;;;;11.55;6.50;;;14.50;61.80;;;;;;4847695;29;20057;-80
2022/03/01 06:22:09;;;;;;;14.80;7.05;;;14.50;62.20;;;;;;4862546;29;20125;-78
2022/03/01 06:24:47;;;;;;;22.27;6.80;;;14.60;63.30;;;;;;4865491;29;20073;-77
2022/03/01 06:27:42;;;;;;;10.73;6.90;;;14.80;61.30;;;;;;4846872;29;20041;-81
2022/03/01 06:30:09;;;;;;;14.45;6.32;;;14.90;64.00;;;;;;4831773;29;20121;-82
2022/03/01 06:32:35;;;;;;;10.10;6.95;;;14.90;62.50;;;;;;4862312;29;20136;-73
2022/03/01 06:35:00;;;;;;;17.35;8.77;;;14.90;61.70;;;;;;4862445;29;20128;-80
2022/03/01 06:37:27;;;;;;;15.35;7.05;;;14.40;52.10;;;;;;4846193;29;20085;-79
2022/03/01 06:39:53;;;;;;;13.02;6.00;;;14.90;57.20;;;;;;4863015;29;20102;-79
2022/03/01 06:42:19;;;;;;;21.85;7.13;;;15.10;57.20;;;;;;4861754;29;20045;-78
2022/03/01 06:44:47;;;;;;;19.67;6.32;;;15.20;55.40;;;;;;4861859;29;20064;-80
2022/03/01 06:47:13;;;;;;;16.92;6.72;;;15.30;55.20;;;;;;4863074;29;20102;-80
2022/03/01 06:49:39;;;;;;;20.10;6.85;;;15.30;54.90;;;;;;4863001;29;20053;-80
2022/03/01 06:52:08;;;;;;;11.48;6.35;;;15.40;54.90;;;;;;4863126;29;20045;-78
2022/03/01 06:54:33;;;;;;;13.30;6.35;;;15.50;54.30;;;;;;4862726;29;20042;-76
2022/03/01 06:56:59;;;;;;;15.93;5.60;;;15.60;54.70;;;;;;4862768;29;20511;-80
2022/03/01 06:59:26;;;;;;;18.70;5.47;;;15.70;55.60;;;;;;4862743;29;20046;-75
2022/03/01 07:01:53;;;;;;;13.38;5.88;;;15.80;55.30;;;;;;4861166;29;20061;-78
2022/03/01 07:04:51;;;;;;;16.83;6.03;;;15.90;55.20;;;;;;4831495;29;20053;-78
2022/03/01 07:07:16;;;;;;;15.85;6.97;;;15.90;55.00;;;;;;4845670;29;20089;-79
2022/03/01 07:38:03;;;;;;;8.65;5.30;;;16.40;51.20;;;;;;4806099;29;20038;-80
2022/03/01 07:40:29;;;;;;;9.05;6.53;;;16.40;50.90;;;;;;4790340;30;20048;-80
2022/03/01 07:42:55;;;;;;;10.13;5.97;;;16.50;51.00;;;;;;4761146;30;20517;-80
2022/03/01 07:45:21;;;;;;;9.40;5.80;;;16.50;50.50;;;;;;4780612;30;20051;-78
2022/03/01 07:47:47;;;;;;;15.65;6.05;;;16.50;50.60;;;;;;4778221;30;20627;-79
2022/03/01 07:50:13;;;;;;;12.50;6.13;;;16.50;50.30;;;;;;4778413;30;20125;-81
2022/03/01 07:52:39;;;;;;;12.18;5.95;;;16.50;50.10;;;;;;4778075;30;20090;-79
2022/03/01 07:55:06;;;;;;;9.25;5.65;;;16.50;50.20;;;;;;4781590;29;20065;-78
2022/03/01 07:57:38;;;;;;;9.98;5.47;;;16.60;50.30;;;;;;4830709;29;20051;-79
2022/03/01 08:00:13;;;;;;;10.95;5.72;;;16.50;50.20;;;;;;4828125;29;20520;-79
2022/03/01 08:07:29;;;;;;;;;;;;;;;;;;;;;
2022/03/01 08:10:10;;;;;;;9.52;5.57;;;16.70;51.10;;;;;;4775669;30;20116;-75
2022/03/01 08:16:21;;;;;;;8.52;5.35;;;16.70;50.50;;;;;;4830398;29;20488;-79
2022/03/01 08:24:34;;;;;;;;;;;;;;;;;;;;;
2022/03/01 09:52:06;;;;;;;7.35;4.97;;;16.00;55.60;;;;;;4739268;30;20366;-78
2022/03/01 09:54:31;;;;;;;6.57;4.57;;;16.10;55.40;;;;;;4735269;30;20183;-80
2022/03/01 09:56:57;;;;;;;6.95;5.18;;;16.10;55.40;;;;;;4810965;29;20137;-79
2022/03/01 09:59:23;;;;;;;8.40;5.65;;;16.20;55.10;;;;;;4795834;29;20038;-77
2022/03/01 10:01:55;;;;;;;10.65;5.10;;;16.10;52.70;;;;;;4824820;29;20555;-76
2022/03/01 10:04:27;;;;;;;11.80;4.97;;;16.20;54.30;;;;;;4830834;29;20050;-81
2022/03/01 10:06:53;;;;;;;12.85;6.97;;;16.20;54.60;;;;;;4828683;29;20077;-77
2022/03/01 10:10:04;;;;;;;12.18;7.72;;;16.30;54.00;;;;;;4845019;29;20142;-79
2022/03/01 10:12:30;;;;;;;11.98;8.63;;;16.30;52.30;;;;;;4825123;29;20054;-78
2022/03/01 10:15:03;;;;;;;14.13;9.50;;;16.30;50.80;;;;;;4812780;29;20106;-78
2022/03/01 10:17:44;;;;;;;9.90;8.13;;;16.40;49.40;;;;;;4813606;29;20081;-77
2022/03/01 10:20:18;;;;;;;10.75;7.72;;;16.40;48.80;;;;;;4828930;29;20133;-79
2022/03/01 10:22:46;;;;;;;8.60;7.18;;;16.50;49.10;;;;;;4828335;29;20424;-77
2022/03/01 10:25:14;;;;;;;9.40;7.00;;;16.50;49.30;;;;;;4813496;29;20085;-78
2022/03/01 10:27:42;;;;;;;9.90;6.60;;;16.60;49.50;;;;;;4813593;29;20425;-77
2022/03/01 10:30:08;;;;;;;7.85;6.43;;;16.70;49.50;;;;;;4813537;29;20041;-80
2022/03/01 10:40:15;;;;;;;9.57;5.30;;;16.60;50.20;;;;;;4828563;29;20046;-78
2022/03/01 10:43:15;;;;;;;5.70;4.78;;;16.70;50.30;;;;;;4801680;29;20050;-78
2022/03/01 10:46:19;;;;;;;6.78;5.78;;;16.80;50.50;;;;;;4827687;29;20125;-78
2022/03/01 10:53:18;;;;;;;6.57;5.40;;;16.90;50.30;;;;;;4844170;29;20178;-78
2022/03/01 11:04:36;;;;;;;6.63;4.70;;;16.90;50.90;;;;;;4862134;29;20523;-80
2022/03/01 11:32:58;;;;;;;8.13;4.90;;;16.80;51.80;;;;;;5591971;23;20460;-79
2022/03/01 11:36:09;;;;;;;5.50;4.55;;;16.80;51.90;;;;;;4859858;29;20534;-79
2022/03/01 11:38:35;;;;;;;7.25;5.00;;;16.90;51.90;;;;;;4861064;29;20482;-80
2022/03/01 11:45:17;;;;;;;7.57;5.10;;;16.80;52.10;;;;;;4683249;30;20389;-80
2022/03/01 11:47:45;;;;;;;9.55;5.13;;;16.80;52.60;;;;;;4717124;30;20361;-82
2022/03/01 11:51:03;;;;;;;7.95;4.93;;;16.50;52.60;;;;;;4714545;30;20053;-80
2022/03/01 11:53:33;;;;;;;10.95;5.03;;;16.60;53.30;;;;;;4760242;29;20088;-74
2022/03/01 11:56:02;;;;;;;8.38;5.15;;;16.70;53.40;;;;;;4856367;29;20045;-79
2022/03/01 11:58:37;;;;;;;8.05;5.05;;;16.70;53.50;;;;;;4849262;29;20045;-78
2022/03/01 12:01:13;;;;;;;9.30;5.28;;;16.70;53.60;;;;;;4874678;29;20064;-77
2022/03/01 12:03:58;;;;;;;9.85;5.53;;;16.70;53.60;;;;;;4882131;29;20072;-79
2022/03/01 12:06:31;;;;;;;8.40;6.00;;;16.60;53.40;;;;;;4867462;29;20052;-79
2022/03/01 12:09:21;;;;;;;9.38;6.45;;;16.60;53.60;;;;;;4867159;29;20089;-82
2022/03/01 12:12:00;;;;;;;16.25;9.05;;;16.60;54.00;;;;;;4848629;29;20049;-82
2022/03/01 12:14:29;;;;;;;13.25;8.30;;;16.60;53.00;;;;;;4855889;29;20056;-78
2022/03/01 12:16:55;;;;;;;14.15;9.18;;;16.60;52.70;;;;;;4858644;29;20378;-77
2022/03/01 12:19:25;;;;;;;15.75;11.05;;;16.60;52.40;;;;;;4848794;29;20041;-78
2022/03/01 12:21:58;;;;;;;21.27;11.55;;;16.50;52.00;;;;;;4865930;29;20103;-80
2022/03/01 12:24:35;;;;;;;16.17;10.93;;;16.40;51.30;;;;;;4839644;29;20052;-80
2022/03/01 12:27:30;;;;;;;18.38;10.15;;;16.40;51.00;;;;;;4864084;29;20052;-81
2022/03/01 12:34:03;;;;;;;13.63;9.32;;;16.30;51.00;;;;;;4814594;29;20046;-81
2022/03/01 13:35:43;;;;;;;9.23;6.55;;;15.90;52.80;;;;;;4739838;29;20073;-79
2022/03/01 13:38:17;;;;;;;9.95;6.32;;;15.80;52.90;;;;;;4868833;29;20486;-80
2022/03/01 13:41:22;;;;;;;10.20;6.50;;;15.80;53.10;;;;;;4844688;29;20046;-83
2022/03/01 13:44:34;;;;;;;9.23;6.50;;;15.80;53.40;;;;;;4773523;30;20124;-80
2022/03/01 13:54:49;;;;;;;15.73;6.47;;;15.90;54.50;;;;;;4740564;30;20557;-81
2022/03/01 14:01:24;;;;;;;11.60;6.50;;;16.00;54.40;;;;;;4742821;29;20103;-80
2022/03/01 14:03:50;;;;;;;11.90;5.93;;;16.00;54.30;;;;;;4862996;29;20495;-78
2022/03/01 14:06:16;;;;;;;13.45;6.25;;;16.10;54.30;;;;;;4846780;29;20085;-79
2022/03/01 14:08:56;;;;;;;10.18;6.13;;;16.10;54.30;;;;;;4863083;29;20049;-78
2022/03/01 14:11:53;;;;;;;10.65;5.93;;;16.20;54.50;;;;;;4863425;29;20041;-82
2022/03/01 14:14:22;;;;;;;11.77;5.65;;;16.30;54.40;;;;;;4831708;29;20042;-76
2022/03/01 14:16:48;;;;;;;14.07;5.70;;;16.50;55.10;;;;;;4862984;29;20479;-80
2022/03/01 14:19:17;;;;;;;10.25;5.53;;;16.60;54.50;;;;;;4858309;29;20041;-77
2022/03/01 14:21:49;;;;;;;12.57;6.03;;;16.70;54.50;;;;;;4861610;29;20041;-79
2022/03/01 14:24:17;;;;;;;6.75;5.10;;;16.80;54.50;;;;;;4829233;29;20376;-85
2022/03/01 14:26:43;;;;;;;9.00;5.60;;;16.90;54.40;;;;;;4872626;29;20053;-78
2022/03/01 14:29:11;;;;;;;13.30;5.30;;;17.00;54.30;;;;;;4858119;29;20157;-75
2022/03/01 14:31:40;;;;;;;10.07;5.32;;;17.10;54.50;;;;;;4862275;29;20401;-83
2022/03/01 14:34:07;;;;;;;8.65;5.53;;;17.20;54.40;;;;;;4845476;29;20447;-79
2022/03/01 14:36:35;;;;;;;9.25;5.05;;;17.20;54.40;;;;;;4845261;29;20053;-81
2022/03/01 14:39:02;;;;;;;8.38;5.35;;;17.20;54.50;;;;;;4881069;29;20040;-82
2022/03/01 14:41:31;;;;;;;12.65;5.82;;;17.20;55.20;;;;;;4865066;29;20063;-80
2022/03/01 14:43:58;;;;;;;9.35;5.43;;;17.20;54.50;;;;;;4864802;29;20061;-80
2022/03/01 14:46:24;;;;;;;14.52;6.07;;;17.20;54.50;;;;;;4849744;29;20351;-80
2022/03/01 14:48:50;;;;;;;8.90;5.15;;;17.20;54.50;;;;;;4876163;29;20056;-77
2022/03/01 14:51:16;;;;;;;9.57;5.60;;;17.20;54.60;;;;;;4853359;29;20061;-80
2022/03/01 14:53:43;;;;;;;11.73;6.10;;;17.20;54.70;;;;;;4827798;29;20363;-77
2022/03/01 14:56:08;;;;;;;11.60;6.88;;;17.10;54.70;;;;;;4812708;29;20058;-81
2022/03/01 14:58:34;;;;;;;12.70;6.35;;;17.10;55.00;;;;;;4843402;29;20136;-77
2022/03/01 15:01:03;;;;;;;13.52;6.32;;;17.10;55.50;;;;;;4840429;29;20132;-79
2022/03/01 15:03:34;;;;;;;15.20;6.28;;;17.10;55.80;;;;;;4844439;29;20432;-82
2022/03/01 15:06:03;;;;;;;24.92;7.10;;;17.10;56.30;;;;;;4813266;29;20042;-80
2022/03/01 15:08:32;;;;;;;17.83;7.20;;;17.00;56.50;;;;;;4845982;29;20104;-78
2022/03/01 15:10:58;;;;;;;14.23;7.30;;;17.00;56.80;;;;;;4846046;29;20056;-79
2022/03/01 15:13:25;;;;;;;16.13;6.70;;;17.00;57.00;;;;;;4862518;29;20085;-73
2022/03/01 15:15:51;;;;;;;17.65;7.30;;;17.00;57.10;;;;;;4861323;29;20045;-79
2022/03/01 15:18:18;;;;;;;13.23;6.93;;;17.00;57.40;;;;;;4862635;29;20090;-74
2022/03/01 15:20:45;;;;;;;14.27;6.30;;;17.00;57.40;;;;;;4876714;29;20053;-75
2022/03/01 15:23:24;;;;;;;13.75;7.10;;;17.00;57.40;;;;;;4862535;29;20049;-79
2022/03/01 15:25:49;;;;;;;13.13;6.43;;;16.90;57.50;;;;;;4861362;29;20049;-78
2022/03/01 15:28:52;;;;;;;16.55;7.10;;;16.90;57.50;;;;;;4833145;29;20041;-79
2022/03/01 15:31:17;;;;;;;14.68;7.43;;;17.00;57.80;;;;;;4844637;29;20064;-76
2022/03/01 15:33:43;;;;;;;21.33;7.22;;;17.00;57.60;;;;;;4882812;29;20069;-77
2022/03/01 15:36:12;;;;;;;18.02;6.70;;;17.00;57.60;;;;;;4884639;29;20049;-78
2022/03/01 15:38:42;;;;;;;16.73;7.32;;;17.00;57.70;;;;;;4884665;29;20466;-80
2022/03/01 15:41:07;;;;;;;14.60;7.07;;;17.00;57.90;;;;;;4886461;29;20430;-75
2022/03/01 15:43:33;;;;;;;19.58;6.80;;;17.00;57.90;;;;;;4886365;29;20052;-73
2022/03/01 15:45:59;;;;;;;13.63;6.78;;;17.00;57.90;;;;;;4886550;29;20435;-76
2022/03/01 15:48:25;;;;;;;17.00;7.32;;;17.10;57.80;;;;;;4902749;29;20044;-80
2022/03/01 15:50:51;;;;;;;13.05;6.93;;;17.10;58.30;;;;;;4902864;29;20462;-77
2022/03/01 15:53:17;;;;;;;20.73;7.88;;;17.00;59.00;;;;;;4886445;29;20061;-80
2022/03/01 15:55:43;;;;;;;22.60;7.15;;;17.00;59.20;;;;;;4886754;29;20048;-78
2022/03/01 15:58:12;;;;;;;13.73;7.20;;;17.00;60.00;;;;;;4886072;29;20044;-79
2022/03/01 16:00:38;;;;;;;14.30;8.20;;;17.00;60.10;;;;;;4902720;29;20362;-80
2022/03/01 16:03:04;;;;;;;18.38;7.50;;;17.10;60.30;;;;;;4858002;29;20471;-81
2022/03/01 16:05:30;;;;;;;14.82;7.18;;;17.10;60.80;;;;;;4867823;29;20049;-82
2022/03/01 16:07:55;;;;;;;15.93;9.95;;;17.10;60.30;;;;;;4852366;29;20459;-78
2022/03/01 16:10:22;;;;;;;37.60;11.77;;;17.10;60.20;;;;;;4883815;29;20379;-78
2022/03/01 16:12:48;;;;;;;46.22;15.88;;;17.20;59.60;;;;;;4852349;29;20439;-79
2022/03/01 16:15:14;;;;;;;31.77;13.25;;;17.20;59.10;;;;;;4883558;29;20065;-77
2022/03/01 16:17:40;;;;;;;39.67;14.43;;;17.20;58.50;;;;;;4885871;29;20107;-79
2022/03/01 16:20:07;;;;;;;35.03;14.52;;;17.30;58.60;;;;;;4884152;29;20480;-81
2022/03/01 16:22:34;;;;;;;25.80;14.57;;;17.30;58.40;;;;;;4870743;29;20044;-81
2022/03/01 16:24:59;;;;;;;28.85;15.20;;;17.30;59.60;;;;;;4900740;29;20111;-78
2022/03/01 16:27:25;;;;;;;27.88;14.98;;;17.20;60.50;;;;;;4902598;29;20049;-80
2022/03/01 16:29:52;;;;;;;23.48;13.48;;;17.30;59.80;;;;;;4871317;29;20482;-79
2022/03/01 16:32:18;;;;;;;20.60;13.55;;;17.20;58.50;;;;;;4874323;29;20057;-78
2022/03/01 16:34:43;;;;;;;22.02;14.85;;;17.30;58.20;;;;;;4848924;29;20057;-77
2022/03/01 16:37:10;;;;;;;22.23;14.50;;;17.30;58.90;;;;;;4847980;29;20053;-78
2022/03/01 16:39:42;;;;;;;19.35;13.48;;;17.30;58.00;;;;;;4882580;29;20045;-81
2022/03/01 16:42:10;;;;;;;24.83;15.23;;;17.30;56.20;;;;;;4862831;29;20049;-79
2022/03/01 16:44:36;;;;;;;19.58;14.30;;;17.20;54.40;;;;;;4848469;29;20089;-74
2022/03/01 16:47:03;;;;;;;19.67;14.50;;;17.20;54.20;;;;;;4848391;29;20060;-75
2022/03/01 16:49:33;;;;;;;18.35;13.55;;;17.20;55.30;;;;;;4865112;29;20053;-75
2022/03/01 16:52:00;;;;;;;17.35;12.35;;;17.30;56.00;;;;;;4848684;29;20049;-75
2022/03/01 16:54:26;;;;;;;18.45;12.25;;;17.30;56.80;;;;;;4865120;29;20057;-75
2022/03/01 16:56:52;;;;;;;17.83;11.52;;;17.30;57.10;;;;;;4864702;29;20068;-75
2022/03/01 16:59:19;;;;;;;13.25;10.32;;;17.30;57.40;;;;;;4864637;29;20460;-75
2022/03/01 17:01:45;;;;;;;15.95;10.57;;;17.30;57.60;;;;;;4864923;29;20053;-75
2022/03/01 17:04:10;;;;;;;14.43;9.65;;;17.40;57.90;;;;;;4848912;29;20053;-75
2022/03/01 17:06:37;;;;;;;14.07;9.93;;;17.40;58.00;;;;;;4863878;29;20079;-77
2022/03/01 17:09:10;;;;;;;11.70;9.02;;;17.40;58.20;;;;;;4868903;29;20471;-75
2022/03/01 17:11:39;;;;;;;13.32;9.05;;;17.40;58.30;;;;;;4899776;29;20155;-76
2022/03/01 17:14:05;;;;;;;12.55;8.50;;;17.40;58.40;;;;;;4885052;29;20099;-74
2022/03/01 17:16:56;;;;;;;11.75;8.30;;;17.30;58.50;;;;;;4902079;29;20056;-81
2022/03/01 17:19:22;;;;;;;14.20;8.68;;;17.30;58.70;;;;;;4897876;29;20063;-78
2022/03/01 17:21:48;;;;;;;12.52;8.65;;;17.20;58.70;;;;;;4901342;29;20044;-81
2022/03/01 17:24:14;;;;;;;13.93;8.73;;;17.20;58.80;;;;;;4884824;29;20171;-81
2022/03/01 17:26:40;;;;;;;13.85;9.10;;;17.10;57.30;;;;;;4856737;29;20037;-82
2022/03/01 17:29:05;;;;;;;13.10;8.18;;;17.00;58.50;;;;;;4850665;29;20359;-80
2022/03/01 17:31:31;;;;;;;14.35;8.05;;;16.90;58.70;;;;;;4866211;29;20462;-81
2022/03/01 17:33:57;;;;;;;20.20;8.43;;;16.90;58.90;;;;;;4861464;29;20057;-81
2022/03/01 17:36:29;;;;;;;17.58;8.55;;;16.90;59.70;;;;;;4845138;29;20053;-85
2022/03/01 17:38:55;;;;;;;22.27;8.70;;;16.90;59.60;;;;;;4863560;29;20052;-80
2022/03/01 17:41:21;;;;;;;19.58;9.00;;;16.70;58.70;;;;;;4847400;29;20045;-82
2022/03/01 17:43:46;;;;;;;16.15;9.07;;;16.70;59.50;;;;;;4847344;29;20097;-81
2022/03/01 17:46:12;;;;;;;16.60;7.85;;;16.70;59.40;;;;;;4863137;29;20113;-83
2022/03/01 17:48:43;;;;;;;15.40;8.07;;;16.70;59.70;;;;;;4847497;29;20459;-80
2022/03/01 17:51:12;;;;;;;14.35;7.97;;;16.70;59.20;;;;;;4862458;29;20127;-81
2022/03/01 17:53:37;;;;;;;22.02;8.40;;;16.60;59.90;;;;;;4863255;29;20515;-78
2022/03/01 17:56:03;;;;;;;15.68;7.90;;;16.60;59.70;;;;;;4847177;29;20136;-82
2022/03/01 17:58:29;;;;;;;15.35;8.15;;;16.60;59.50;;;;;;4844624;29;20050;-77
2022/03/01 18:00:55;;;;;;;18.65;8.82;;;16.60;59.30;;;;;;4862472;29;20213;-81
2022/03/01 18:03:24;;;;;;;11.73;7.75;;;16.60;59.30;;;;;;4844572;29;20057;-80
2022/03/01 18:05:50;;;;;;;13.20;7.70;;;16.50;59.90;;;;;;4863377;29;20052;-82
2022/03/01 18:08:17;;;;;;;13.55;7.80;;;16.50;59.10;;;;;;4872789;29;20037;-79
2022/03/01 18:10:43;;;;;;;18.27;7.40;;;16.50;59.00;;;;;;4862146;29;20041;-79
2022/03/01 18:13:08;;;;;;;15.50;8.57;;;16.40;59.00;;;;;;4844586;29;20072;-83
2022/03/01 18:15:36;;;;;;;13.30;7.85;;;16.40;59.10;;;;;;4865704;29;20459;-80
2022/03/01 18:18:02;;;;;;;17.27;7.47;;;16.40;59.10;;;;;;4865546;29;20411;-82
2022/03/01 18:20:28;;;;;;;27.70;8.80;;;16.40;59.20;;;;;;4850011;29;20132;-82
2022/03/01 18:22:53;;;;;;;12.85;7.70;;;16.30;59.20;;;;;;4865724;29;20081;-80
2022/03/01 18:25:19;;;;;;;13.10;8.00;;;16.30;59.20;;;;;;4852817;29;20128;-78
2022/03/01 18:27:45;;;;;;;15.88;7.80;;;16.30;59.20;;;;;;4877481;29;20045;-81
2022/03/01 18:30:11;;;;;;;11.57;8.15;;;16.30;59.20;;;;;;4847110;29;20061;-81
2022/03/01 18:32:37;;;;;;;11.65;7.40;;;16.30;59.20;;;;;;4846724;29;20068;-81
2022/03/01 18:35:05;;;;;;;17.33;8.57;;;16.30;59.30;;;;;;4846409;29;20057;-80
2022/03/01 18:37:31;;;;;;;10.68;6.50;;;16.20;59.20;;;;;;4846312;29;20053;-81
2022/03/01 18:39:57;;;;;;;15.32;7.55;;;16.20;59.30;;;;;;4868474;29;20104;-80
2022/03/01 18:42:23;;;;;;;13.43;6.88;;;16.20;59.20;;;;;;4865057;29;20056;-81
2022/03/01 18:44:50;;;;;;;9.23;6.82;;;16.20;59.20;;;;;;4856144;29;20128;-81
2022/03/01 18:47:17;;;;;;;12.73;7.28;;;16.10;59.20;;;;;;4861679;29;20500;-80
2022/03/01 18:49:43;;;;;;;11.30;6.70;;;16.20;59.30;;;;;;4831408;29;20356;-81
2022/03/01 18:52:09;;;;;;;11.20;7.80;;;16.10;59.30;;;;;;4862801;29;20053;-78
2022/03/01 18:54:35;;;;;;;14.10;7.80;;;16.10;60.00;;;;;;4846280;29;20065;-80
2022/03/01 18:57:02;;;;;;;11.15;7.57;;;16.10;59.30;;;;;;4856027;29;20053;-81
2022/03/01 18:59:28;;;;;;;11.98;7.97;;;16.00;59.30;;;;;;4868620;29;20088;-80
2022/03/01 19:01:54;;;;;;;10.65;7.18;;;16.00;59.50;;;;;;4879336;29;20482;-79
2022/03/01 19:04:21;;;;;;;12.20;6.90;;;16.00;59.50;;;;;;4881353;29;20195;-81
2022/03/01 19:06:52;;;;;;;11.38;7.20;;;16.00;59.50;;;;;;4879115;29;20056;-79
2022/03/01 19:09:18;;;;;;;11.02;6.90;;;16.00;59.50;;;;;;4864899;29;20092;-80
2022/03/01 19:11:44;;;;;;;9.15;7.13;;;16.00;59.50;;;;;;4865032;29;20164;-79
2022/03/01 19:14:10;;;;;;;11.30;6.93;;;16.00;59.40;;;;;;4864975;29;20057;-82
2022/03/01 19:16:37;;;;;;;12.20;7.38;;;16.00;59.40;;;;;;4881294;29;20063;-81
2022/03/01 19:19:04;;;;;;;9.90;7.90;;;16.00;59.20;;;;;;4864818;29;20053;-80
2022/03/01 19:21:30;;;;;;;10.23;7.95;;;16.00;59.10;;;;;;4865207;29;20072;-80
2022/03/01 19:23:56;;;;;;;10.90;7.60;;;16.00;59.00;;;;;;4849292;29;20418;-78
2022/03/01 19:26:21;;;;;;;11.00;8.20;;;16.00;59.00;;;;;;4880203;29;20045;-80
2022/03/01 19:28:48;;;;;;;8.82;7.00;;;16.00;58.90;;;;;;4860464;29;20049;-81
2022/03/01 19:31:14;;;;;;;9.32;7.32;;;16.00;58.90;;;;;;4877048;29;20136;-80
2022/03/01 19:33:40;;;;;;;10.00;7.45;;;16.00;59.00;;;;;;4861334;29;20049;-80
2022/03/01 19:36:06;;;;;;;9.90;8.05;;;15.90;58.90;;;;;;4861604;29;20071;-82
2022/03/01 19:38:32;;;;;;;10.27;7.70;;;15.90;59.00;;;;;;4846486;29;20038;-80
2022/03/01 19:41:42;;;;;;;16.92;8.65;;;16.00;58.70;;;;;;4846946;29;20072;-84
2022/03/01 19:44:07;;;;;;;11.00;7.93;;;15.90;58.80;;;;;;4861423;29;20045;-83
2022/03/01 19:46:34;;;;;;;13.25;7.75;;;16.00;59.10;;;;;;4847368;29;20052;-79
2022/03/01 19:49:00;;;;;;;11.30;8.40;;;16.00;58.90;;;;;;4849819;29;20104;-83
2022/03/01 19:51:40;;;;;;;10.02;7.90;;;16.00;58.90;;;;;;4834356;29;20045;-82
2022/03/01 19:54:06;;;;;;;11.02;8.13;;;16.00;59.00;;;;;;4848195;29;20229;-81
2022/03/01 19:56:37;;;;;;;13.02;7.65;;;16.00;58.70;;;;;;4849157;29;20168;-83
2022/03/01 19:59:36;;;;;;;16.33;8.68;;;16.00;58.50;;;;;;4844782;29;20065;-84
2022/03/01 20:02:15;;;;;;;13.02;7.88;;;16.00;58.40;;;;;;4830722;29;20052;-84
2022/03/01 20:04:59;;;;;;;24.30;8.60;;;16.00;58.60;;;;;;4828251;29;20432;-83
2022/03/01 20:08:01;;;;;;;14.18;8.50;;;15.90;58.50;;;;;;4830637;29;20057;-84
2022/03/01 20:10:27;;;;;;;12.88;8.80;;;16.00;58.60;;;;;;4845949;29;20137;-80
2022/03/01 20:12:53;;;;;;;10.93;7.75;;;15.90;59.00;;;;;;4846167;29;20045;-82
2022/03/01 20:15:19;;;;;;;14.02;9.88;;;15.90;58.80;;;;;;4849049;29;20485;-76
2022/03/01 20:18:06;;;;;;;14.95;11.05;;;15.90;58.10;;;;;;4865406;29;20049;-83
2022/03/01 20:20:33;;;;;;;13.52;12.05;;;16.00;56.90;;;;;;4862800;29;20114;-77
2022/03/01 20:23:10;;;;;;;20.52;12.85;;;15.90;56.30;;;;;;4877785;29;20053;-83
2022/03/01 20:25:36;;;;;;;15.52;13.45;;;15.80;55.90;;;;;;4876440;29;20065;-81
2022/03/01 20:28:06;;;;;;;19.02;13.55;;;15.80;55.80;;;;;;4850410;29;20081;-83
2022/03/01 20:30:32;;;;;;;17.75;14.02;;;15.70;55.50;;;;;;4864773;29;20045;-79
2022/03/01 20:32:58;;;;;;;17.33;14.93;;;15.60;55.10;;;;;;4848906;29;20436;-81
2022/03/01 20:35:24;;;;;;;18.85;14.85;;;15.60;54.90;;;;;;4833296;29;20061;-81
2022/03/01 20:37:50;;;;;;;17.80;15.90;;;15.60;54.80;;;;;;4848492;29;20046;-81
2022/03/01 20:40:17;;;;;;;18.10;15.40;;;15.60;54.70;;;;;;4850849;29;20052;-82
2022/03/01 20:42:48;;;;;;;19.02;15.50;;;15.60;54.60;;;;;;4851665;29;20045;-80
2022/03/01 20:45:15;;;;;;;20.17;15.98;;;15.50;54.40;;;;;;4867576;29;20423;-83
2022/03/01 20:47:41;;;;;;;19.52;16.33;;;15.50;54.30;;;;;;4851448;29;20080;-85
2022/03/01 20:50:10;;;;;;;21.27;16.92;;;15.50;54.20;;;;;;4859395;29;20057;-81
2022/03/01 20:52:39;;;;;;;21.02;16.42;;;15.40;54.00;;;;;;4829890;29;20049;-81
2022/03/01 20:55:06;;;;;;;20.20;16.90;;;15.40;54.00;;;;;;4830054;29;20049;-82
2022/03/01 20:57:42;;;;;;;20.60;16.10;;;15.40;54.00;;;;;;4829954;29;20128;-84
2022/03/01 21:00:11;;;;;;;20.00;16.63;;;15.30;54.50;;;;;;4825286;29;20091;-81
2022/03/01 21:02:37;;;;;;;20.05;15.50;;;15.30;53.80;;;;;;4863444;29;20056;-82
2022/03/01 21:05:03;;;;;;;20.23;15.05;;;15.30;54.00;;;;;;4850399;29;20052;-80
2022/03/01 21:07:29;;;;;;;20.23;14.63;;;15.30;54.30;;;;;;4873468;29;20084;-82
2022/03/01 21:09:55;;;;;;;18.88;15.63;;;15.20;54.80;;;;;;4857178;29;20069;-81
2022/03/01 21:12:21;;;;;;;19.90;14.40;;;15.10;55.30;;;;;;4875422;29;20049;-82
2022/03/01 21:14:47;;;;;;;18.13;15.02;;;15.00;55.60;;;;;;4835605;29;20056;-81
2022/03/01 21:17:15;;;;;;;19.33;14.98;;;15.00;55.80;;;;;;4862886;29;20433;-82
2022/03/01 21:19:43;;;;;;;18.63;14.60;;;14.90;55.90;;;;;;4854439;29;20124;-84
2022/03/01 21:22:10;;;;;;;19.15;14.45;;;14.90;56.20;;;;;;4867035;29;20184;-81
2022/03/01 21:24:36;;;;;;;19.38;14.52;;;14.90;56.30;;;;;;4881981;29;20355;-82
2022/03/01 21:27:03;;;;;;;21.10;15.73;;;14.90;56.50;;;;;;4881578;29;20045;-84
2022/03/01 21:29:29;;;;;;;17.35;14.82;;;14.90;56.70;;;;;;4866060;29;20036;-80
2022/03/01 21:31:55;;;;;;;19.15;15.35;;;14.80;56.80;;;;;;4866593;29;20465;-82
2022/03/01 21:34:22;;;;;;;19.70;15.50;;;14.70;56.80;;;;;;4865995;29;20056;-84
2022/03/01 21:36:47;;;;;;;17.58;14.73;;;14.70;57.00;;;;;;4865996;29;20056;-82
2022/03/01 21:39:13;;;;;;;18.63;14.88;;;14.70;57.10;;;;;;4879342;29;20048;-81
2022/03/01 21:41:40;;;;;;;19.13;16.13;;;14.60;57.10;;;;;;4881764;29;20045;-81
2022/03/01 21:44:06;;;;;;;17.70;15.10;;;14.60;57.20;;;;;;4881296;29;20600;-84
2022/03/01 21:46:33;;;;;;;18.52;15.35;;;14.60;57.70;;;;;;4865843;29;20052;-83
2022/03/01 21:48:59;;;;;;;18.60;14.82;;;14.60;57.30;;;;;;4865989;29;20044;-81
2022/03/01 21:51:27;;;;;;;17.65;14.93;;;14.60;57.40;;;;;;4865973;29;20473;-81
2022/03/01 21:53:53;;;;;;;19.90;15.48;;;14.60;57.40;;;;;;4865925;29;20085;-82
2022/03/01 21:56:21;;;;;;;17.80;15.57;;;14.60;57.30;;;;;;4865824;29;20045;-81
2022/03/01 21:58:51;;;;;;;19.38;15.60;;;14.50;57.40;;;;;;4880469;29;20037;-82
2022/03/01 22:01:17;;;;;;;18.15;14.73;;;14.50;57.50;;;;;;4865428;29;20052;-82